Time;durP1;ratioP1;P1;durP2;ratioP2;P2;SDS_P1;SDS_P2;PMS_P1;PMS_P2;Temp;Humidity;BMP_temperature;BMP_pressure;BME280_temperature;BME280_humidity;BME280_pressure;Samples;Min_cycle;Max_cycle;Signal;HPM_P1;HPM_P2
2022/02/21 00:01:03;;;;;;;24.05;11.48;;;6.00;61.90;;;;;;5118792;28;20031;-38
2022/02/21 00:03:30;;;;;;;24.33;11.80;;;6.00;61.80;;;;;;5118206;28;20067;-40
2022/02/21 00:05:56;;;;;;;27.27;12.52;;;6.00;61.80;;;;;;5118542;28;20318;-38
2022/02/21 00:08:22;;;;;;;21.23;11.15;;;6.00;61.70;;;;;;5118131;28;20032;-38
2022/02/21 00:10:48;;;;;;;23.05;11.35;;;6.00;61.70;;;;;;5118666;28;20157;-39
2022/02/21 00:13:14;;;;;;;23.10;11.75;;;6.00;61.60;;;;;;5117992;28;20054;-38
2022/02/21 00:15:39;;;;;;;22.25;10.68;;;6.00;61.60;;;;;;5118467;27;20027;-38
2022/02/21 00:18:05;;;;;;;23.67;11.48;;;6.00;61.80;;;;;;5117876;28;20028;-40
2022/02/21 00:20:32;;;;;;;23.42;11.68;;;6.00;61.80;;;;;;5118384;28;20047;-40
2022/02/21 00:22:58;;;;;;;22.20;10.38;;;6.10;61.80;;;;;;5117692;28;20058;-40
2022/02/21 00:25:24;;;;;;;21.55;10.77;;;6.10;61.60;;;;;;5118165;27;20027;-38
2022/02/21 00:27:49;;;;;;;18.08;9.82;;;6.10;61.60;;;;;;5117985;28;20484;-38
2022/02/21 00:30:15;;;;;;;22.45;10.32;;;6.10;61.50;;;;;;5118129;28;20078;-39
2022/02/21 00:32:41;;;;;;;25.08;10.13;;;6.10;61.40;;;;;;5117508;28;20040;-38
2022/02/21 00:35:07;;;;;;;19.02;9.73;;;6.20;61.30;;;;;;5118114;28;20118;-38
2022/02/21 00:37:33;;;;;;;23.55;10.32;;;6.20;61.20;;;;;;5117800;28;20027;-38
2022/02/21 00:39:59;;;;;;;22.55;11.15;;;6.20;61.20;;;;;;5117968;28;20084;-39
2022/02/21 00:42:24;;;;;;;19.35;9.70;;;6.20;61.30;;;;;;5117781;28;20111;-40
2022/02/21 00:44:55;;;;;;;19.05;9.35;;;6.20;61.20;;;;;;5117660;28;20029;-38
2022/02/21 00:47:25;;;;;;;18.27;9.98;;;6.20;61.20;;;;;;5117325;28;20023;-39
2022/02/21 00:49:55;;;;;;;23.63;10.30;;;6.20;61.10;;;;;;5117624;28;20031;-38
2022/02/21 00:52:22;;;;;;;23.77;11.27;;;6.20;61.00;;;;;;5117426;28;20040;-39
2022/02/21 00:54:48;;;;;;;19.92;9.77;;;6.20;61.00;;;;;;5117453;28;20035;-38
2022/02/21 00:57:13;;;;;;;19.98;9.75;;;6.20;61.00;;;;;;5117147;27;20028;-39
2022/02/21 00:59:39;;;;;;;18.45;9.63;;;6.20;60.90;;;;;;5117435;28;20023;-39
2022/02/21 01:02:05;;;;;;;20.88;9.90;;;6.10;60.80;;;;;;5117186;28;20031;-40
2022/02/21 01:04:31;;;;;;;19.33;10.15;;;6.10;60.80;;;;;;5116590;28;20319;-38
2022/02/21 01:06:56;;;;;;;20.02;10.60;;;6.00;60.80;;;;;;5116862;28;20047;-38
2022/02/21 01:09:23;;;;;;;21.08;10.20;;;6.00;60.80;;;;;;5117263;28;20394;-38
2022/02/21 01:11:48;;;;;;;18.88;9.85;;;6.00;60.70;;;;;;5116883;28;20122;-40
2022/02/21 01:14:14;;;;;;;21.85;10.43;;;5.90;60.70;;;;;;5116857;28;20127;-39
2022/02/21 01:16:40;;;;;;;22.40;10.68;;;5.90;60.70;;;;;;5116990;28;20084;-38
2022/02/21 01:19:05;;;;;;;17.55;9.43;;;5.90;60.70;;;;;;5116608;28;20024;-40
2022/02/21 01:21:32;;;;;;;19.48;9.45;;;5.80;60.80;;;;;;5117158;28;20111;-38
2022/02/21 01:23:58;;;;;;;17.98;9.60;;;5.80;60.90;;;;;;5116876;28;20028;-39
2022/02/21 01:26:24;;;;;;;15.18;8.48;;;5.80;60.90;;;;;;5116733;28;20030;-38
2022/02/21 01:28:50;;;;;;;18.55;8.18;;;5.70;61.00;;;;;;5116592;28;20035;-38
2022/02/21 01:31:16;;;;;;;16.65;7.78;;;5.70;61.10;;;;;;5117157;28;20028;-38
2022/02/21 01:33:42;;;;;;;14.18;7.30;;;5.70;61.20;;;;;;5116409;28;20408;-39
2022/02/21 01:36:08;;;;;;;18.42;7.40;;;5.70;61.30;;;;;;5116373;28;20026;-40
2022/02/21 01:38:33;;;;;;;17.15;8.82;;;5.70;61.40;;;;;;5116549;28;20089;-38
2022/02/21 01:40:59;;;;;;;18.73;7.70;;;5.70;61.40;;;;;;5116797;28;20023;-38
2022/02/21 01:43:25;;;;;;;14.48;7.30;;;5.70;61.40;;;;;;5116178;28;20097;-38
2022/02/21 01:45:50;;;;;;;14.98;7.32;;;5.70;61.50;;;;;;5116627;28;20027;-38
2022/02/21 01:48:16;;;;;;;15.95;7.13;;;5.70;61.60;;;;;;5116013;28;20305;-39
2022/02/21 01:50:43;;;;;;;16.75;7.68;;;5.80;61.70;;;;;;5116757;28;20055;-38
2022/02/21 01:53:09;;;;;;;17.02;7.25;;;5.70;61.80;;;;;;5116058;28;20032;-39
2022/02/21 01:55:36;;;;;;;17.10;8.10;;;5.80;61.80;;;;;;5116526;28;20357;-40
2022/02/21 01:58:03;;;;;;;17.25;6.60;;;5.80;61.80;;;;;;5115930;28;20078;-40
2022/02/21 02:00:28;;;;;;;16.15;8.02;;;5.90;61.90;;;;;;5116705;28;20395;-39
2022/02/21 02:02:54;;;;;;;14.75;7.60;;;5.90;61.80;;;;;;5116193;28;20036;-39
2022/02/21 02:05:22;;;;;;;16.67;7.88;;;6.00;61.80;;;;;;5116675;28;20391;-39
2022/02/21 02:07:48;;;;;;;17.15;7.13;;;6.00;61.70;;;;;;5116337;28;20320;-38
2022/02/21 02:10:13;;;;;;;19.02;7.75;;;6.00;61.60;;;;;;5116558;28;20044;-39
2022/02/21 02:12:39;;;;;;;15.35;7.82;;;6.10;61.80;;;;;;5116061;28;20434;-39
2022/02/21 02:15:14;;;;;;;16.13;8.02;;;6.10;61.60;;;;;;5118442;28;20308;-38
2022/02/21 02:17:41;;;;;;;14.52;7.50;;;6.20;62.30;;;;;;5120471;28;20324;-39
2022/02/21 02:20:08;;;;;;;16.95;7.75;;;6.10;61.60;;;;;;5120759;28;20028;-38
2022/02/21 02:22:33;;;;;;;16.92;8.18;;;6.20;61.50;;;;;;5120099;28;20028;-38
2022/02/21 02:24:59;;;;;;;16.65;8.82;;;6.20;61.30;;;;;;5120441;28;20140;-38
2022/02/21 02:27:27;;;;;;;16.48;8.50;;;6.10;61.30;;;;;;5120033;28;20036;-39
2022/02/21 02:29:55;;;;;;;19.38;8.32;;;6.10;61.20;;;;;;5120357;28;20028;-40
2022/02/21 02:32:21;;;;;;;18.55;8.27;;;6.10;61.40;;;;;;5120156;28;20370;-39
2022/02/21 02:34:48;;;;;;;15.63;8.25;;;6.00;61.40;;;;;;5120552;28;20370;-38
2022/02/21 02:37:15;;;;;;;17.23;8.35;;;5.90;61.60;;;;;;5120072;28;20102;-38
2022/02/21 02:39:41;;;;;;;14.38;8.05;;;5.90;61.70;;;;;;5120132;28;20031;-38
2022/02/21 02:42:09;;;;;;;16.02;7.32;;;5.80;61.90;;;;;;5119937;28;20450;-39
2022/02/21 02:44:35;;;;;;;13.32;7.38;;;5.80;62.20;;;;;;5119920;28;20123;-38
2022/02/21 02:47:05;;;;;;;17.35;6.60;;;5.70;62.30;;;;;;5119679;28;20064;-39
2022/02/21 02:49:31;;;;;;;14.25;6.32;;;5.70;62.50;;;;;;5120262;28;20031;-39
2022/02/21 02:51:57;;;;;;;15.15;6.50;;;5.60;62.60;;;;;;5119755;28;20135;-38
2022/02/21 02:54:22;;;;;;;13.98;7.43;;;5.60;62.80;;;;;;5119870;28;20028;-39
2022/02/21 02:56:48;;;;;;;12.50;6.03;;;5.60;63.00;;;;;;5119803;28;20038;-41
2022/02/21 02:59:14;;;;;;;11.50;6.28;;;5.60;63.20;;;;;;5119774;28;20024;-38
2022/02/21 03:01:40;;;;;;;15.15;6.15;;;5.50;63.20;;;;;;5119533;28;20063;-38
2022/02/21 03:04:06;;;;;;;19.35;6.55;;;5.50;63.40;;;;;;5119537;28;20106;-38
2022/02/21 03:06:33;;;;;;;9.43;5.47;;;5.50;63.50;;;;;;5119626;28;20330;-39
2022/02/21 03:08:59;;;;;;;9.98;5.82;;;5.50;63.60;;;;;;5119120;28;20058;-38
2022/02/21 03:11:25;;;;;;;12.02;6.03;;;5.50;63.80;;;;;;5119769;28;20234;-38
2022/02/21 03:13:51;;;;;;;15.13;6.85;;;5.50;63.90;;;;;;5118859;28;20048;-39
2022/02/21 03:16:17;;;;;;;13.75;6.68;;;5.50;63.90;;;;;;5119619;28;20084;-38
2022/02/21 03:18:43;;;;;;;13.73;6.80;;;5.50;63.90;;;;;;5119118;28;20022;-38
2022/02/21 03:21:09;;;;;;;13.50;6.88;;;5.50;63.90;;;;;;5118959;28;20024;-39
2022/02/21 03:23:35;;;;;;;10.75;6.28;;;5.50;63.90;;;;;;5119061;28;20032;-38
2022/02/21 03:26:01;;;;;;;12.00;6.65;;;5.40;63.90;;;;;;5118798;28;20036;-38
2022/02/21 03:28:27;;;;;;;14.35;7.82;;;5.40;63.90;;;;;;5119132;28;20360;-40
2022/02/21 03:30:53;;;;;;;11.68;7.25;;;5.40;63.90;;;;;;5119471;28;20450;-40
2022/02/21 03:33:19;;;;;;;11.65;7.38;;;5.40;63.90;;;;;;5118971;28;20438;-38
2022/02/21 03:35:45;;;;;;;14.13;6.80;;;5.40;63.80;;;;;;5119327;28;20398;-40
2022/02/21 03:38:11;;;;;;;14.90;7.20;;;5.40;63.80;;;;;;5118926;28;20061;-39
2022/02/21 03:40:36;;;;;;;17.60;7.43;;;5.40;63.90;;;;;;5118779;27;20045;-40
2022/02/21 03:43:02;;;;;;;15.48;7.63;;;5.40;64.00;;;;;;5118497;28;20070;-38
2022/02/21 03:45:28;;;;;;;13.00;6.18;;;5.30;64.10;;;;;;5118908;28;20034;-39
2022/02/21 03:47:54;;;;;;;14.10;7.68;;;5.30;64.10;;;;;;5117667;28;20028;-39
2022/02/21 03:50:20;;;;;;;13.00;6.97;;;5.30;64.20;;;;;;5118938;28;20398;-40
2022/02/21 03:52:47;;;;;;;15.27;8.02;;;5.30;64.30;;;;;;5118740;28;20295;-39
2022/02/21 03:55:13;;;;;;;17.95;7.07;;;5.20;64.30;;;;;;5118873;28;20032;-38
2022/02/21 03:57:39;;;;;;;11.82;6.35;;;5.20;64.30;;;;;;5118127;28;20088;-38
2022/02/21 04:00:08;;;;;;;14.60;7.50;;;5.20;64.30;;;;;;5118745;28;20031;-38
2022/02/21 04:02:33;;;;;;;16.98;6.82;;;5.20;64.30;;;;;;5118502;28;20031;-39
2022/02/21 04:05:01;;;;;;;13.20;7.03;;;5.20;64.40;;;;;;5118157;28;20419;-38
2022/02/21 04:07:27;;;;;;;13.65;7.35;;;5.20;64.40;;;;;;5118348;28;20059;-40
2022/02/21 04:09:53;;;;;;;14.85;7.47;;;5.10;64.40;;;;;;5118590;28;20404;-38
2022/02/21 04:12:19;;;;;;;15.95;8.77;;;5.10;64.50;;;;;;5118051;28;20088;-39
2022/02/21 04:14:45;;;;;;;19.80;8.73;;;5.10;64.60;;;;;;5118330;28;20056;-39
2022/02/21 04:17:10;;;;;;;14.60;7.60;;;5.00;64.60;;;;;;5117813;28;20032;-43
2022/02/21 04:19:36;;;;;;;16.35;7.85;;;5.00;64.70;;;;;;5118289;28;20027;-42
2022/02/21 04:22:02;;;;;;;14.07;7.20;;;4.90;64.80;;;;;;5117876;28;20032;-40
2022/02/21 04:24:28;;;;;;;13.35;7.25;;;4.90;64.90;;;;;;5118172;28;20031;-38
2022/02/21 04:26:53;;;;;;;15.70;8.05;;;4.80;65.00;;;;;;5117681;28;20028;-39
2022/02/21 04:29:19;;;;;;;10.50;6.18;;;4.80;65.10;;;;;;5117832;28;20405;-39
2022/02/21 04:31:45;;;;;;;13.77;6.75;;;4.70;65.20;;;;;;5117604;28;20085;-38
2022/02/21 04:34:10;;;;;;;15.23;6.95;;;4.70;65.40;;;;;;5117464;28;20088;-38
2022/02/21 04:36:38;;;;;;;13.23;7.43;;;4.60;65.50;;;;;;5117791;28;20032;-40
2022/02/21 04:39:04;;;;;;;14.80;7.75;;;4.60;65.60;;;;;;5116573;28;20032;-39
2022/02/21 04:41:31;;;;;;;13.20;6.97;;;4.50;65.80;;;;;;5117673;28;20036;-40
2022/02/21 04:43:56;;;;;;;12.25;6.78;;;4.40;65.90;;;;;;5117319;28;20114;-39
2022/02/21 04:46:22;;;;;;;15.15;7.68;;;4.40;66.10;;;;;;5117635;28;20137;-38
2022/02/21 04:48:48;;;;;;;12.93;7.63;;;4.40;66.40;;;;;;5117611;28;20031;-38
2022/02/21 04:51:14;;;;;;;15.30;7.65;;;4.30;66.40;;;;;;5117795;28;20039;-40
2022/02/21 04:53:40;;;;;;;18.38;8.05;;;4.30;66.60;;;;;;5117332;28;20103;-39
2022/02/21 04:56:06;;;;;;;12.75;7.07;;;4.20;66.70;;;;;;5117703;28;20141;-38
2022/02/21 04:58:31;;;;;;;15.18;7.68;;;4.20;67.00;;;;;;5117081;28;20028;-38
2022/02/21 05:00:57;;;;;;;13.07;7.15;;;4.10;67.00;;;;;;5117536;28;20024;-40
2022/02/21 05:03:23;;;;;;;17.55;7.25;;;4.10;67.80;;;;;;5117239;28;20426;-38
2022/02/21 05:05:48;;;;;;;14.80;7.93;;;4.10;67.50;;;;;;5117128;28;20073;-39
2022/02/21 05:08:14;;;;;;;15.48;8.07;;;4.00;67.70;;;;;;5116979;28;20039;-39
2022/02/21 05:10:46;;;;;;;15.32;7.93;;;4.00;67.80;;;;;;5073237;28;20372;-38
2022/02/21 05:13:12;;;;;;;16.33;9.43;;;4.00;67.90;;;;;;5073136;28;20029;-38
2022/02/21 05:15:37;;;;;;;15.77;8.52;;;4.00;68.10;;;;;;5073640;28;20386;-38
2022/02/21 05:18:03;;;;;;;19.30;8.68;;;3.90;68.10;;;;;;5072893;28;20066;-38
2022/02/21 05:20:29;;;;;;;16.15;8.38;;;3.90;68.30;;;;;;5073380;28;20036;-39
2022/02/21 05:22:55;;;;;;;15.80;8.70;;;3.90;68.60;;;;;;5072648;28;20028;-42
2022/02/21 05:25:20;;;;;;;19.02;8.70;;;3.90;68.80;;;;;;5073165;28;20033;-38
2022/02/21 05:27:46;;;;;;;18.25;8.63;;;3.80;68.70;;;;;;5072472;28;20032;-39
2022/02/21 05:30:13;;;;;;;14.55;7.35;;;3.80;69.50;;;;;;5072618;28;20025;-38
2022/02/21 05:32:39;;;;;;;20.63;9.23;;;3.80;69.00;;;;;;5072490;28;20025;-39
2022/02/21 05:35:06;;;;;;;17.25;8.88;;;3.80;69.10;;;;;;5072812;28;20037;-40
2022/02/21 05:37:32;;;;;;;15.43;8.27;;;3.80;69.20;;;;;;5072598;28;20033;-40
2022/02/21 05:39:57;;;;;;;16.98;8.40;;;3.80;69.50;;;;;;5072313;28;20332;-40
2022/02/21 05:42:23;;;;;;;15.65;8.27;;;3.80;69.60;;;;;;5072273;28;20455;-39
2022/02/21 05:44:48;;;;;;;18.58;8.50;;;3.80;69.60;;;;;;5072368;28;20102;-39
2022/02/21 05:47:14;;;;;;;18.67;9.35;;;3.80;69.70;;;;;;5072151;28;20344;-38
2022/02/21 05:49:40;;;;;;;18.85;7.97;;;3.90;69.80;;;;;;5072434;28;20155;-40
2022/02/21 05:52:06;;;;;;;22.00;9.88;;;3.90;69.90;;;;;;5072105;28;20380;-39
2022/02/21 05:54:32;;;;;;;22.65;10.25;;;4.00;69.80;;;;;;5072580;28;20213;-39
2022/02/21 05:56:57;;;;;;;18.50;8.23;;;4.00;69.90;;;;;;5071522;28;20401;-38
2022/02/21 05:59:23;;;;;;;21.52;9.98;;;4.10;69.90;;;;;;5071905;28;20060;-38
2022/02/21 06:01:49;;;;;;;19.42;8.73;;;4.10;69.80;;;;;;5071157;28;20044;-40
2022/02/21 06:04:15;;;;;;;21.13;10.40;;;4.20;69.90;;;;;;5071373;28;20106;-39
2022/02/21 06:06:41;;;;;;;24.75;9.50;;;4.30;69.70;;;;;;5071254;28;20079;-38
2022/02/21 06:09:06;;;;;;;19.13;8.65;;;4.40;69.50;;;;;;5071374;28;20053;-38
2022/02/21 06:11:32;;;;;;;17.17;9.02;;;4.40;69.40;;;;;;5071634;28;20028;-39
2022/02/21 06:13:58;;;;;;;22.15;9.23;;;4.50;69.40;;;;;;5071392;28;20060;-39
2022/02/21 06:16:24;;;;;;;23.33;9.48;;;4.50;69.20;;;;;;5070527;28;20071;-39
2022/02/21 06:18:50;;;;;;;18.95;9.27;;;4.60;69.10;;;;;;5071599;28;20039;-38
2022/02/21 06:21:16;;;;;;;20.30;9.38;;;4.60;69.00;;;;;;5063240;28;20120;-38
2022/02/21 06:23:41;;;;;;;19.08;8.77;;;4.70;68.80;;;;;;5058496;28;20128;-39
2022/02/21 06:26:07;;;;;;;21.33;9.23;;;4.70;68.60;;;;;;5057898;28;20258;-38
2022/02/21 06:28:33;;;;;;;17.85;9.82;;;4.70;68.60;;;;;;5057942;28;20470;-38
2022/02/21 06:30:59;;;;;;;15.45;9.10;;;4.80;68.50;;;;;;5058102;28;20028;-38
2022/02/21 06:33:25;;;;;;;25.52;11.18;;;4.80;68.40;;;;;;5052889;28;20032;-39
2022/02/21 06:35:51;;;;;;;22.05;9.30;;;4.90;68.20;;;;;;5057952;28;20175;-39
2022/02/21 06:38:17;;;;;;;20.70;9.45;;;4.90;68.00;;;;;;5057582;28;20551;-39
2022/02/21 06:40:43;;;;;;;21.73;9.25;;;5.00;67.90;;;;;;5054423;28;20036;-38
2022/02/21 06:43:09;;;;;;;27.60;9.43;;;5.00;67.60;;;;;;5057043;28;20028;-38
2022/02/21 06:45:35;;;;;;;20.70;8.73;;;5.10;67.60;;;;;;5057761;28;20357;-39
2022/02/21 06:48:01;;;;;;;16.38;9.25;;;5.10;67.40;;;;;;5057109;28;20036;-38
2022/02/21 06:50:27;;;;;;;14.63;8.60;;;5.20;67.30;;;;;;5058030;28;20057;-39
2022/02/21 06:52:53;;;;;;;16.85;8.68;;;5.20;67.00;;;;;;5056543;28;20448;-38
2022/02/21 06:55:19;;;;;;;22.88;8.65;;;5.30;66.90;;;;;;5057569;28;20119;-38
2022/02/21 06:57:47;;;;;;;20.33;8.63;;;5.30;66.80;;;;;;5056853;28;20055;-39
2022/02/21 07:00:14;;;;;;;24.42;10.50;;;5.30;66.60;;;;;;5057791;28;20041;-38
2022/02/21 07:02:41;;;;;;;17.63;8.63;;;5.30;66.40;;;;;;5056584;28;20043;-39
2022/02/21 07:05:07;;;;;;;20.30;8.88;;;5.30;66.50;;;;;;5057595;28;20044;-38
2022/02/21 07:07:34;;;;;;;21.67;9.40;;;5.40;66.40;;;;;;5056581;28;20025;-38
2022/02/21 07:10:00;;;;;;;20.83;8.95;;;5.40;66.30;;;;;;5056651;28;20093;-38
2022/02/21 07:12:26;;;;;;;43.72;26.95;;;5.40;66.30;;;;;;5056503;28;20384;-38
2022/02/21 07:14:52;;;;;;;24.08;9.70;;;5.40;66.30;;;;;;5057194;28;20048;-39
2022/02/21 07:17:18;;;;;;;19.25;9.82;;;5.50;66.20;;;;;;5056666;28;20029;-38
2022/02/21 07:19:43;;;;;;;15.63;8.68;;;5.60;66.10;;;;;;5057066;28;20068;-39
2022/02/21 07:22:09;;;;;;;20.08;9.50;;;5.60;65.90;;;;;;5055989;28;20033;-38
2022/02/21 07:24:35;;;;;;;20.00;8.70;;;5.60;65.80;;;;;;5057015;28;20124;-39
2022/02/21 07:27:00;;;;;;;15.95;7.60;;;5.70;65.90;;;;;;5055908;28;20344;-38
2022/02/21 07:29:27;;;;;;;18.40;8.15;;;5.70;65.50;;;;;;5056811;28;20043;-44
2022/02/21 07:31:53;;;;;;;16.65;8.23;;;5.80;65.50;;;;;;5055326;28;20024;-39
2022/02/21 07:34:19;;;;;;;17.10;7.00;;;5.90;65.40;;;;;;5044501;28;20034;-39
2022/02/21 07:36:45;;;;;;;14.73;7.50;;;6.00;64.80;;;;;;5036445;28;20079;-38
2022/02/21 07:39:11;;;;;;;18.08;8.32;;;6.00;64.50;;;;;;5037003;28;20033;-39
2022/02/21 07:41:39;;;;;;;15.35;7.60;;;6.10;64.60;;;;;;5036724;28;20380;-38
2022/02/21 07:44:05;;;;;;;14.23;7.05;;;6.20;64.20;;;;;;5036393;28;20044;-38
2022/02/21 07:46:31;;;;;;;15.00;7.72;;;6.20;64.30;;;;;;5036112;28;20117;-38
2022/02/21 07:48:57;;;;;;;17.20;7.63;;;6.30;64.30;;;;;;5047895;28;20112;-39
2022/02/21 07:51:23;;;;;;;11.88;6.43;;;6.40;64.00;;;;;;5056162;28;20052;-38
2022/02/21 07:53:48;;;;;;;24.42;8.30;;;6.50;63.60;;;;;;5055929;28;20375;-38
2022/02/21 07:56:14;;;;;;;18.75;7.68;;;6.60;63.30;;;;;;5056161;28;20033;-38
2022/02/21 07:58:40;;;;;;;14.25;6.68;;;6.60;63.00;;;;;;5056120;28;20025;-38
2022/02/21 08:01:05;;;;;;;13.43;7.00;;;6.70;62.70;;;;;;5055955;28;20071;-39
2022/02/21 08:03:31;;;;;;;25.38;11.20;;;6.70;62.70;;;;;;5055535;28;20017;-39
2022/02/21 08:05:57;;;;;;;13.27;7.18;;;6.80;62.60;;;;;;5055844;28;20025;-40
2022/02/21 08:08:23;;;;;;;14.15;7.07;;;6.90;62.40;;;;;;5055320;28;20029;-40
2022/02/21 08:10:48;;;;;;;13.77;6.47;;;6.90;62.40;;;;;;5055747;28;20037;-39
2022/02/21 08:13:14;;;;;;;16.83;6.63;;;7.00;61.70;;;;;;5055126;28;20017;-39
2022/02/21 08:15:40;;;;;;;13.77;5.97;;;7.10;61.60;;;;;;5056027;28;20021;-38
2022/02/21 08:18:05;;;;;;;10.82;6.47;;;7.20;61.50;;;;;;5055323;28;20313;-39
2022/02/21 08:20:31;;;;;;;15.02;7.88;;;7.30;61.50;;;;;;5056321;28;20108;-38
2022/02/21 08:22:57;;;;;;;14.82;6.50;;;7.40;61.30;;;;;;5055418;28;20048;-38
2022/02/21 08:25:23;;;;;;;20.15;6.80;;;7.40;61.10;;;;;;5055992;28;20543;-39
2022/02/21 08:27:51;;;;;;;17.45;6.03;;;7.60;61.10;;;;;;5055165;28;20059;-39
2022/02/21 08:30:21;;;;;;;16.60;6.72;;;7.60;61.20;;;;;;5054651;28;20314;-39
2022/02/21 08:32:48;;;;;;;12.85;6.90;;;7.80;60.80;;;;;;5054764;28;20021;-40
2022/02/21 08:35:14;;;;;;;13.00;5.63;;;7.90;60.10;;;;;;5055914;28;20392;-39
2022/02/21 08:37:40;;;;;;;15.93;6.63;;;8.00;59.40;;;;;;5053752;28;20025;-40
2022/02/21 08:40:09;;;;;;;15.15;6.45;;;8.10;59.10;;;;;;5055283;28;20032;-38
2022/02/21 08:42:36;;;;;;;12.05;6.60;;;8.10;59.10;;;;;;5054727;28;20033;-40
2022/02/21 08:45:03;;;;;;;14.10;7.43;;;8.20;59.30;;;;;;5055274;28;20045;-39
2022/02/21 08:47:29;;;;;;;13.07;6.75;;;8.30;59.10;;;;;;5054844;28;20057;-39
2022/02/21 08:49:55;;;;;;;14.85;5.88;;;8.40;59.10;;;;;;5055471;28;20039;-38
2022/02/21 08:52:20;;;;;;;38.60;17.92;;;8.50;58.60;;;;;;5054404;28;20115;-39
2022/02/21 08:54:46;;;;;;;14.25;7.20;;;8.50;58.70;;;;;;5055457;28;20053;-40
2022/02/21 08:57:12;;;;;;;20.33;7.25;;;8.70;58.60;;;;;;5054527;28;20032;-39
2022/02/21 08:59:38;;;;;;;20.80;6.32;;;8.80;58.40;;;;;;5055096;28;20045;-39
2022/02/21 09:02:04;;;;;;;11.35;4.88;;;8.90;57.80;;;;;;5054909;28;20405;-39
2022/02/21 09:04:30;;;;;;;14.93;5.43;;;9.00;57.20;;;;;;5055390;28;20029;-40
2022/02/21 09:06:55;;;;;;;13.80;6.18;;;9.20;56.70;;;;;;5054837;28;20099;-39
2022/02/21 09:09:22;;;;;;;36.90;9.60;;;9.30;56.20;;;;;;5054541;28;20041;-39
2022/02/21 09:11:50;;;;;;;13.43;5.30;;;9.40;56.20;;;;;;5055175;28;20029;-40
2022/02/21 09:14:16;;;;;;;16.25;7.05;;;9.60;56.10;;;;;;5055067;28;20208;-39
2022/02/21 09:16:42;;;;;;;7.68;4.40;;;9.70;55.50;;;;;;5055423;28;20036;-41
2022/02/21 09:19:08;;;;;;;9.27;4.50;;;9.90;54.80;;;;;;5054873;28;20433;-38
2022/02/21 09:21:34;;;;;;;12.02;4.15;;;10.00;54.70;;;;;;5055047;28;20025;-39
2022/02/21 09:23:59;;;;;;;11.93;5.05;;;10.10;54.10;;;;;;5054640;28;20060;-38
2022/02/21 09:26:27;;;;;;;9.35;4.38;;;10.20;53.60;;;;;;5055092;28;20040;-39
2022/02/21 09:28:52;;;;;;;11.00;4.30;;;10.30;52.90;;;;;;5052170;28;20076;-40
2022/02/21 09:31:18;;;;;;;9.50;4.28;;;10.40;52.60;;;;;;5053635;28;20384;-40
2022/02/21 09:33:44;;;;;;;10.43;4.18;;;10.50;52.20;;;;;;5054341;28;20036;-39
2022/02/21 09:36:10;;;;;;;9.23;4.38;;;10.50;52.00;;;;;;5055139;28;20028;-40
2022/02/21 09:38:36;;;;;;;8.98;4.55;;;10.60;51.70;;;;;;5054315;28;20120;-40
2022/02/21 09:41:03;;;;;;;7.70;3.75;;;10.60;51.30;;;;;;5054843;28;20025;-40
2022/02/21 09:43:29;;;;;;;8.95;4.03;;;10.60;51.40;;;;;;5054051;28;20039;-38
2022/02/21 09:46:00;;;;;;;8.95;4.18;;;10.60;51.10;;;;;;5055188;28;20028;-40
2022/02/21 09:48:27;;;;;;;14.05;4.30;;;10.60;51.60;;;;;;5054117;28;20255;-39
2022/02/21 09:50:58;;;;;;;10.27;4.57;;;10.70;51.50;;;;;;5054716;28;20029;-39
2022/02/21 09:53:28;;;;;;;7.18;3.42;;;10.70;51.50;;;;;;5054132;28;20116;-38
2022/02/21 09:55:54;;;;;;;8.00;3.50;;;10.80;50.90;;;;;;5055769;28;20438;-39
2022/02/21 09:58:20;;;;;;;7.80;3.63;;;10.80;50.10;;;;;;5057656;28;20029;-38
2022/02/21 10:00:46;;;;;;;15.30;4.20;;;10.90;50.40;;;;;;5058454;28;20033;-40
2022/02/21 10:03:11;;;;;;;14.45;3.95;;;10.90;50.40;;;;;;5057690;28;20364;-38
2022/02/21 10:05:37;;;;;;;9.52;3.20;;;10.90;50.50;;;;;;5054799;28;20052;-39
2022/02/21 10:08:08;;;;;;;7.43;2.92;;;11.00;49.90;;;;;;5057940;28;20437;-40
2022/02/21 10:10:37;;;;;;;22.00;3.83;;;11.10;49.30;;;;;;5057898;28;20049;-39
2022/02/21 10:13:03;;;;;;;15.30;3.17;;;11.10;49.00;;;;;;5057455;28;20325;-40
2022/02/21 10:15:31;;;;;;;8.75;3.88;;;11.10;48.90;;;;;;5058137;28;20037;-40
2022/02/21 10:18:18;;;;;;;4.93;2.70;;;11.10;48.70;;;;;;5057449;28;20033;-39
2022/02/21 10:20:57;;;;;;;5.18;2.60;;;11.20;48.00;;;;;;5057865;28;20041;-39
2022/02/21 10:23:23;;;;;;;10.57;3.38;;;11.20;47.70;;;;;;5057396;28;20420;-39
2022/02/21 10:26:06;;;;;;;6.22;4.10;;;11.20;47.80;;;;;;5057476;28;20033;-38
2022/02/21 10:28:40;;;;;;;7.72;2.63;;;11.20;48.40;;;;;;5057414;28;20119;-41
2022/02/21 10:31:20;;;;;;;7.80;4.10;;;11.30;48.90;;;;;;5056674;28;20025;-39
2022/02/21 10:34:07;;;;;;;12.27;4.82;;;11.30;48.90;;;;;;5056945;28;20360;-40
2022/02/21 10:36:37;;;;;;;8.75;3.75;;;11.40;49.50;;;;;;5057510;28;20025;-39
2022/02/21 10:39:11;;;;;;;9.97;3.67;;;11.40;49.10;;;;;;5057360;28;20028;-39
2022/02/21 10:41:49;;;;;;;18.17;3.40;;;11.40;48.80;;;;;;5057510;28;20261;-40
2022/02/21 10:44:24;;;;;;;8.20;3.47;;;11.50;49.20;;;;;;5055970;28;20040;-40
2022/02/21 10:47:17;;;;;;;13.43;3.13;;;11.50;49.10;;;;;;5057559;28;20324;-41
2022/02/21 10:50:01;;;;;;;8.50;2.45;;;11.50;48.80;;;;;;5057467;28;20047;-40
2022/02/21 10:52:35;;;;;;;9.90;3.17;;;11.50;48.40;;;;;;5057291;28;20025;-39
2022/02/21 10:55:01;;;;;;;5.35;2.80;;;11.60;48.90;;;;;;5057989;28;20099;-39
2022/02/21 10:57:28;;;;;;;7.80;3.25;;;11.60;48.90;;;;;;5057088;28;20025;-39
2022/02/21 10:59:54;;;;;;;6.38;2.60;;;11.60;48.60;;;;;;5057765;28;20029;-39
2022/02/21 11:02:21;;;;;;;5.25;2.40;;;11.70;48.80;;;;;;5057135;28;20120;-40
2022/02/21 11:04:47;;;;;;;10.10;3.22;;;11.70;48.80;;;;;;5057840;28;20473;-39
2022/02/21 11:07:13;;;;;;;12.57;3.92;;;11.80;48.80;;;;;;5056994;28;20113;-39
2022/02/21 11:09:41;;;;;;;19.08;6.90;;;11.90;48.90;;;;;;5056521;28;20124;-40
2022/02/21 11:12:07;;;;;;;7.20;3.65;;;12.00;49.10;;;;;;5056755;28;20071;-40
2022/02/21 11:14:34;;;;;;;9.05;3.45;;;12.00;49.10;;;;;;5057199;28;20325;-40
2022/02/21 11:17:04;;;;;;;10.05;3.63;;;12.10;48.70;;;;;;5057037;28;20033;-39
2022/02/21 11:19:30;;;;;;;8.32;3.40;;;12.10;48.80;;;;;;5057050;28;20037;-41
2022/02/21 11:21:57;;;;;;;7.38;3.20;;;12.20;48.70;;;;;;5056786;28;20059;-41
2022/02/21 11:24:35;;;;;;;6.13;3.42;;;12.20;49.00;;;;;;5057042;28;20040;-40
2022/02/21 11:27:01;;;;;;;6.75;3.67;;;12.30;49.00;;;;;;5055981;28;20035;-38
2022/02/21 11:29:59;;;;;;;7.75;4.07;;;12.40;48.50;;;;;;5054247;28;20401;-39
2022/02/21 11:32:24;;;;;;;11.88;3.75;;;12.50;48.30;;;;;;5055790;28;20405;-39
2022/02/21 11:35:20;;;;;;;10.23;3.72;;;12.50;48.30;;;;;;5057185;28;20047;-39
2022/02/21 11:37:46;;;;;;;8.20;4.00;;;12.60;47.60;;;;;;5055787;28;20036;-39
2022/02/21 11:40:14;;;;;;;11.25;2.63;;;12.60;47.60;;;;;;5057196;28;20294;-40
2022/02/21 11:42:40;;;;;;;17.48;3.58;;;12.70;47.00;;;;;;5056753;28;20064;-40
2022/02/21 11:45:22;;;;;;;6.28;3.08;;;12.70;47.40;;;;;;5056062;28;20044;-37
2022/02/21 11:47:51;;;;;;;7.38;3.03;;;12.70;47.40;;;;;;5056472;28;20036;-42
2022/02/21 11:50:19;;;;;;;5.07;3.05;;;12.70;47.10;;;;;;5056674;28;20040;-42
2022/02/21 11:52:49;;;;;;;10.57;5.20;;;12.80;47.00;;;;;;5055831;28;20044;-37
2022/02/21 11:55:30;;;;;;;11.23;4.30;;;12.80;47.20;;;;;;5056766;28;20353;-37
2022/02/21 11:57:57;;;;;;;6.40;3.53;;;12.90;47.70;;;;;;5055812;28;20345;-43
2022/02/21 12:00:36;;;;;;;6.93;3.40;;;13.00;47.50;;;;;;5056717;28;20036;-42
2022/02/21 12:03:17;;;;;;;10.32;4.13;;;13.10;47.00;;;;;;5056068;28;20043;-37
2022/02/21 12:05:44;;;;;;;8.32;3.33;;;13.20;46.40;;;;;;5056039;28;20048;-37
2022/02/21 12:08:31;;;;;;;6.30;3.22;;;13.20;46.80;;;;;;5055622;28;20143;-37
2022/02/21 12:11:02;;;;;;;14.27;3.75;;;13.20;46.80;;;;;;5056278;28;20157;-37
2022/02/21 12:14:09;;;;;;;10.20;3.80;;;13.30;46.30;;;;;;5051119;28;20459;-36
2022/02/21 12:16:57;;;;;;;7.60;3.45;;;13.30;45.50;;;;;;5056583;28;20112;-41
2022/02/21 12:19:27;;;;;;;12.18;3.75;;;13.30;45.70;;;;;;5055257;28;20067;-42
2022/02/21 12:22:22;;;;;;;7.03;3.40;;;13.30;46.00;;;;;;5055374;28;20028;-41
2022/02/21 12:25:09;;;;;;;12.13;4.35;;;13.30;45.90;;;;;;5054616;28;20405;-36
2022/02/21 12:27:36;;;;;;;11.15;3.58;;;13.30;46.10;;;;;;5055366;28;20120;-40
2022/02/21 12:30:02;;;;;;;9.98;3.78;;;13.30;46.00;;;;;;5055842;28;20312;-39
2022/02/21 12:32:27;;;;;;;9.75;4.35;;;13.30;46.10;;;;;;5055512;28;20025;-37
2022/02/21 12:34:55;;;;;;;5.07;3.17;;;13.30;46.10;;;;;;5055788;28;20067;-37
2022/02/21 12:37:20;;;;;;;7.80;3.15;;;13.30;46.90;;;;;;5055289;28;20029;-42
2022/02/21 12:39:46;;;;;;;10.30;3.28;;;13.30;46.50;;;;;;5055800;28;20032;-38
2022/02/21 12:42:12;;;;;;;15.02;9.75;;;13.30;46.70;;;;;;5055035;28;20044;-37
2022/02/21 12:44:39;;;;;;;5.82;2.97;;;13.30;46.60;;;;;;5055810;28;20111;-42
2022/02/21 12:47:05;;;;;;;5.80;3.08;;;13.20;46.70;;;;;;5055178;28;20143;-37